createdAt,value
2022-09-25T00:00:34.947Z,97678.13
2022-09-25T00:03:05.102Z,97673.47
2022-09-25T00:05:35.134Z,97687.41
2022-09-25T00:08:05.504Z,97675.91
2022-09-25T00:10:36.402Z,97678.88
2022-09-25T00:13:06.362Z,97681.06
2022-09-25T00:15:39.055Z,97679.84
2022-09-25T00:18:09.328Z,97677.81
2022-09-25T00:20:37.685Z,97668.41
2022-09-25T00:23:07.699Z,97671.16
2022-09-25T00:25:37.940Z,97668.72
2022-09-25T00:28:07.853Z,97670.38
2022-09-25T00:30:43.338Z,97672.59
2022-09-25T00:33:13.310Z,97670.28
2022-09-25T00:35:43.245Z,97682.38
2022-09-25T00:38:13.335Z,97674.34
2022-09-25T00:40:43.494Z,97670.22
2022-09-25T00:43:17.354Z,97662.00
2022-09-25T00:45:49.977Z,97656.97
2022-09-25T00:48:20.063Z,97648.72
2022-09-25T00:50:56.164Z,97652.31
2022-09-25T00:53:34.055Z,97649.16
2022-09-25T00:56:07.328Z,97645.44
2022-09-25T00:58:39.869Z,97650.16
2022-09-25T01:01:13.170Z,97637.03
2022-09-25T01:03:46.534Z,97635.44
2022-09-25T01:06:19.555Z,97628.28
2022-09-25T01:08:50.303Z,97627.56
2022-09-25T01:11:20.381Z,97631.88
2022-09-25T01:13:50.569Z,97635.03
2022-09-25T01:16:34.557Z,97646.75
2022-09-25T01:19:24.113Z,97640.81
2022-09-25T01:22:02.973Z,97639.56
2022-09-25T01:25:01.823Z,97640.72
2022-09-25T01:28:09.531Z,97645.13
2022-09-25T01:30:49.630Z,97633.75
2022-09-25T01:33:27.054Z,97630.19
2022-09-25T01:36:05.793Z,97627.41
2022-09-25T01:38:43.504Z,97627.78
2022-09-25T01:41:23.299Z,97639.34
2022-09-25T01:44:02.580Z,97639.06
2022-09-25T01:46:43.500Z,97636.97
2022-09-25T01:49:22.346Z,97635.63
2022-09-25T01:51:56.119Z,97638.16
2022-09-25T01:54:33.159Z,97645.81
2022-09-25T01:57:13.004Z,97644.28
2022-09-25T01:59:49.600Z,97639.75
2022-09-25T02:02:27.958Z,97644.84
2022-09-25T02:05:05.098Z,97649.53
2022-09-25T02:07:43.915Z,97650.47
2022-09-25T02:10:20.634Z,97645.94
2022-09-25T02:12:55.492Z,97651.78
2022-09-25T02:15:33.913Z,97650.59
2022-09-25T02:18:24.317Z,97646.47
2022-09-25T02:21:04.282Z,97648.03
2022-09-25T02:23:47.132Z,97645.03
2022-09-25T02:26:27.515Z,97642.06
2022-09-25T02:28:58.612Z,97642.97
2022-09-25T02:31:35.810Z,97639.00
2022-09-25T02:34:14.544Z,97640.59
2022-09-25T02:36:45.799Z,97637.03
2022-09-25T02:39:21.634Z,97632.75
2022-09-25T02:42:32.195Z,97635.72
2022-09-25T02:45:15.184Z,97633.59
2022-09-25T02:48:04.644Z,97644.53
2022-09-25T02:50:48.502Z,97644.19
2022-09-25T02:53:24.642Z,97631.81
2022-09-25T02:56:01.964Z,97635.72
2022-09-25T02:58:39.964Z,97630.44
2022-09-25T03:01:15.513Z,97623.94
2022-09-25T03:03:50.828Z,97628.28
2022-09-25T03:06:25.309Z,97631.44
2022-09-25T03:08:59.574Z,97631.22
2022-09-25T03:11:30.678Z,97623.38
2022-09-25T03:14:03.586Z,97623.38
2022-09-25T03:16:43.443Z,97624.44
2022-09-25T03:19:14.103Z,97635.50
2022-09-25T03:21:46.645Z,97641.34
2022-09-25T03:24:17.057Z,97641.22
2022-09-25T03:26:47.653Z,97644.38
2022-09-25T03:29:18.963Z,97635.94
2022-09-25T03:31:49.140Z,97641.81
2022-09-25T03:34:21.936Z,97638.00
2022-09-25T03:36:54.432Z,97639.22
2022-09-25T03:39:24.814Z,97644.69
2022-09-25T03:41:54.708Z,97644.94
2022-09-25T03:44:24.720Z,97650.72
2022-09-25T03:46:55.003Z,97648.78
2022-09-25T03:49:25.262Z,97642.91
2022-09-25T03:52:00.290Z,97646.03
2022-09-25T03:54:30.453Z,97638.69
2022-09-25T03:57:00.461Z,97637.59
2022-09-25T03:59:30.460Z,97634.06
2022-09-25T04:02:02.439Z,97634.31
2022-09-25T04:04:32.822Z,97628.88
2022-09-25T04:07:06.239Z,97626.44
2022-09-25T04:09:36.227Z,97624.44
2022-09-25T04:12:07.300Z,97619.50
2022-09-25T04:14:37.277Z,97616.75
2022-09-25T04:17:07.859Z,97626.38
2022-09-25T04:19:37.782Z,97620.22
2022-09-25T04:22:10.348Z,97620.84
2022-09-25T04:24:52.538Z,97621.78
2022-09-25T04:27:27.363Z,97616.00
2022-09-25T04:29:57.707Z,97627.38
2022-09-25T04:32:40.202Z,97620.81
2022-09-25T04:35:10.936Z,97629.38
2022-09-25T04:37:43.500Z,97623.94
2022-09-25T04:40:14.209Z,97634.50
2022-09-25T04:42:44.286Z,97631.13
2022-09-25T04:45:14.850Z,97635.47
2022-09-25T04:47:45.020Z,97632.84
2022-09-25T04:50:14.996Z,97630.88
2022-09-25T04:52:47.617Z,97635.47
2022-09-25T04:55:17.893Z,97633.13
2022-09-25T04:57:59.344Z,97626.69
2022-09-25T05:00:32.872Z,97632.59
2022-09-25T05:03:05.461Z,97629.53
2022-09-25T05:05:35.577Z,97629.28
2022-09-25T05:08:08.275Z,97642.31
2022-09-25T05:10:39.759Z,97640.16
2022-09-25T05:13:09.904Z,97636.88
2022-09-25T05:15:39.859Z,97630.59
2022-09-25T05:18:17.676Z,97633.53
2022-09-25T05:20:47.732Z,97632.47
2022-09-25T05:23:20.975Z,97637.19
2022-09-25T05:25:58.195Z,97635.47
2022-09-25T05:28:28.516Z,97634.09
2022-09-25T05:31:02.825Z,97634.56
2022-09-25T05:33:33.080Z,97635.34
2022-09-25T05:36:04.679Z,97640.25
2022-09-25T05:38:39.673Z,97645.56
2022-09-25T05:41:12.467Z,97635.25
2022-09-25T05:43:46.863Z,97642.25
2022-09-25T05:46:18.022Z,97640.94
2022-09-25T05:48:48.141Z,97647.94
2022-09-25T05:51:18.084Z,97638.22
2022-09-25T05:53:50.619Z,97643.53
2022-09-25T05:56:20.530Z,97644.66
2022-09-25T05:58:50.549Z,97647.06
2022-09-25T06:01:21.078Z,97637.19
2022-09-25T06:03:51.156Z,97650.78
2022-09-25T06:06:25.183Z,97647.97
2022-09-25T06:09:00.088Z,97647.16
2022-09-25T06:11:31.606Z,97650.03
2022-09-25T06:14:01.749Z,97650.19
2022-09-25T06:16:32.025Z,97643.44
2022-09-25T06:19:02.100Z,97647.47
2022-09-25T06:21:32.106Z,97645.75
2022-09-25T06:24:04.928Z,97652.19
2022-09-25T06:26:36.717Z,97648.44
2022-09-25T06:29:07.819Z,97649.63
2022-09-25T06:31:39.346Z,97653.97
2022-09-25T06:34:09.681Z,97648.69
2022-09-25T06:36:39.751Z,97645.56
2022-09-25T06:39:12.431Z,97650.06
2022-09-25T06:41:42.451Z,97653.97
2022-09-25T06:44:15.302Z,97651.13
2022-09-25T06:46:47.152Z,97646.13
2022-09-25T06:49:17.447Z,97652.25
2022-09-25T06:51:47.566Z,97638.41
2022-09-25T06:54:20.409Z,97649.28
2022-09-25T06:56:52.240Z,97645.50
2022-09-25T06:59:22.349Z,97639.34
2022-09-25T07:01:52.424Z,97647.44
2022-09-25T07:04:19.861Z,97646.28
2022-09-25T07:06:50.515Z,97646.41
2022-09-25T07:09:23.171Z,97653.09
2022-09-25T07:11:53.234Z,97653.38
2022-09-25T07:14:23.180Z,97663.06
2022-09-25T07:16:53.116Z,97659.78
2022-09-25T07:19:27.565Z,97662.91
2022-09-25T07:21:57.748Z,97654.34
2022-09-25T07:24:30.243Z,97662.59
2022-09-25T07:27:00.213Z,97663.88
2022-09-25T07:29:30.642Z,97665.69
2022-09-25T07:32:00.603Z,97662.34
2022-09-25T07:34:30.518Z,97667.13
2022-09-25T07:37:00.508Z,97669.44
2022-09-25T07:39:33.286Z,97665.66
2022-09-25T07:42:03.969Z,97660.09
2022-09-25T07:44:38.178Z,97660.09
2022-09-25T07:47:09.237Z,97663.44
2022-09-25T07:49:40.533Z,97667.81
2022-09-25T07:52:10.463Z,97666.38
2022-09-25T07:54:44.100Z,97670.81
2022-09-25T07:57:14.449Z,97669.50
2022-09-25T07:59:45.301Z,97675.53
2022-09-25T08:02:15.583Z,97679.75
2022-09-25T08:04:45.591Z,97668.28
2022-09-25T08:07:15.871Z,97675.75
2022-09-25T08:09:48.399Z,97671.06
2022-09-25T08:12:18.401Z,97666.06
2022-09-25T08:14:48.430Z,97668.50
2022-09-25T08:17:19.040Z,97669.50
2022-09-25T08:19:49.113Z,97677.22
2022-09-25T08:22:19.035Z,97667.50
2022-09-25T08:24:51.553Z,97672.56
2022-09-25T08:27:21.736Z,97672.72
2022-09-25T08:29:51.684Z,97661.91
2022-09-25T08:32:21.639Z,97662.66
2022-09-25T08:34:52.120Z,97667.41
2022-09-25T08:37:22.363Z,97668.16
2022-09-25T08:39:54.945Z,97671.44
2022-09-25T08:42:36.182Z,97671.28
2022-09-25T08:45:27.801Z,97662.88
2022-09-25T08:48:14.151Z,97659.91
2022-09-25T08:50:44.823Z,97659.31
2022-09-25T08:53:24.425Z,97652.13
2022-09-25T08:56:10.103Z,97659.81
2022-09-25T08:58:45.339Z,97659.38
2022-09-25T09:01:21.790Z,97654.72
2022-09-25T09:03:59.477Z,97657.53
2022-09-25T09:06:31.997Z,97654.38
2022-09-25T09:09:20.368Z,97663.03
2022-09-25T09:12:00.704Z,97656.31
2022-09-25T09:14:38.537Z,97656.03
2022-09-25T09:17:18.647Z,97655.28
2022-09-25T09:19:54.159Z,97658.78
2022-09-25T09:22:32.643Z,97653.94
2022-09-25T09:25:12.847Z,97655.22
2022-09-25T09:28:09.999Z,97658.28
2022-09-25T09:30:53.640Z,97647.59
2022-09-25T09:33:45.502Z,97651.22
2022-09-25T09:36:30.895Z,97648.66
2022-09-25T09:39:10.975Z,97644.09
2022-09-25T09:42:02.099Z,97633.88
2022-09-25T09:44:52.977Z,97628.53
2022-09-25T09:47:44.652Z,97629.09
2022-09-25T09:50:30.556Z,97632.09
2022-09-25T09:53:08.415Z,97627.28
2022-09-25T09:55:47.668Z,97621.66
2022-09-25T09:58:29.182Z,97627.63
2022-09-25T10:01:22.237Z,97626.19
2022-09-25T10:04:01.385Z,97622.69
2022-09-25T10:06:37.510Z,97618.56
2022-09-25T10:09:08.901Z,97615.19
2022-09-25T10:11:39.234Z,97617.75
2022-09-25T10:14:14.578Z,97614.75
2022-09-25T10:16:47.589Z,97614.50
2022-09-25T10:19:23.596Z,97618.38
2022-09-25T10:22:00.229Z,97615.72
2022-09-25T10:27:36.690Z,97618.56
2022-09-25T10:30:21.977Z,97618.56
2022-09-25T10:33:02.424Z,97618.00
2022-09-25T10:38:48.498Z,97609.88
2022-09-25T10:41:22.832Z,97618.91
2022-09-25T10:44:00.135Z,97613.06
2022-09-25T10:46:45.799Z,97627.44
2022-09-25T10:49:34.466Z,97623.09
2022-09-25T10:52:08.239Z,97618.88
2022-09-25T10:54:45.124Z,97626.53
2022-09-25T10:57:36.106Z,97612.44
2022-09-25T11:00:21.825Z,97619.50
2022-09-25T11:02:56.611Z,97629.69
2022-09-25T11:05:33.203Z,97622.19
2022-09-25T11:08:07.158Z,97620.66
2022-09-25T11:10:57.252Z,97617.88
2022-09-25T11:13:32.187Z,97622.47
2022-09-25T11:16:04.831Z,97628.47
2022-09-25T11:18:41.027Z,97623.88
2022-09-25T11:21:25.307Z,97627.13
2022-09-25T11:24:40.577Z,97622.84
2022-09-25T11:30:18.172Z,97623.88
2022-09-25T11:33:01.208Z,97619.78
2022-09-25T11:35:49.755Z,97625.50
2022-09-25T11:38:49.023Z,97633.06
2022-09-25T11:41:30.750Z,97632.31
2022-09-25T11:44:19.887Z,97627.53
2022-09-25T11:47:05.029Z,97635.97
2022-09-25T11:49:38.785Z,97630.06
2022-09-25T11:52:40.295Z,97625.66
2022-09-25T11:55:55.218Z,97626.81
2022-09-25T11:58:51.564Z,97620.47
2022-09-25T12:01:35.594Z,97612.88
2022-09-25T12:04:41.749Z,97616.75
2022-09-25T12:08:01.346Z,97621.88
2022-09-25T12:10:45.430Z,97613.69
2022-09-25T12:13:32.241Z,97616.25
2022-09-25T12:16:17.184Z,97615.22
2022-09-25T12:19:05.266Z,97611.94
2022-09-25T12:21:48.672Z,97612.91
2022-09-25T12:24:40.298Z,97603.19
2022-09-25T12:27:23.305Z,97594.72
2022-09-25T12:30:13.616Z,97603.53
2022-09-25T12:33:09.037Z,97599.25
2022-09-25T12:35:54.245Z,97598.84
2022-09-25T12:38:38.193Z,97593.31
2022-09-25T12:41:21.516Z,97594.00
2022-09-25T12:44:01.586Z,97592.78
2022-09-25T12:46:39.895Z,97593.25
2022-09-25T12:49:19.802Z,97591.13
2022-09-25T12:51:53.803Z,97589.38
2022-09-25T12:54:35.588Z,97588.84
2022-09-25T12:57:16.005Z,97593.50
2022-09-25T12:59:55.751Z,97586.56
2022-09-25T13:02:36.813Z,97596.91
2022-09-25T13:05:22.108Z,97589.28
2022-09-25T13:08:02.121Z,97585.66
2022-09-25T13:10:42.251Z,97591.44
2022-09-25T13:13:20.085Z,97584.56
2022-09-25T13:15:58.122Z,97585.59
2022-09-25T13:18:31.224Z,97581.50
2022-09-25T13:21:03.178Z,97584.63
2022-09-25T13:23:40.599Z,97581.06
2022-09-25T13:26:22.627Z,97581.84
2022-09-25T13:28:58.798Z,97580.06
2022-09-25T13:31:33.202Z,97583.38
2022-09-25T13:34:12.515Z,97584.38
2022-09-25T13:36:49.297Z,97583.34
2022-09-25T13:39:41.882Z,97584.94
2022-09-25T13:42:25.523Z,97574.59
2022-09-25T13:45:29.276Z,97578.69
2022-09-25T13:48:07.784Z,97573.69
2022-09-25T13:50:45.443Z,97572.97
2022-09-25T13:53:33.557Z,97570.06
2022-09-25T13:56:54.333Z,97570.78
2022-09-25T14:00:04.762Z,97573.25
2022-09-25T14:02:46.830Z,97566.91
2022-09-25T14:05:22.158Z,97566.03
2022-09-25T14:07:58.428Z,97569.75
2022-09-25T14:10:42.884Z,97564.75
2022-09-25T14:13:17.547Z,97573.03
2022-09-25T14:15:50.647Z,97569.53
2022-09-25T14:18:27.700Z,97573.34
2022-09-25T14:21:02.514Z,97574.84
2022-09-25T14:23:34.437Z,97572.72
2022-09-25T14:26:07.971Z,97574.09
2022-09-25T14:28:47.775Z,97567.00
2022-09-25T14:31:50.558Z,97568.44
2022-09-25T14:34:42.232Z,97560.44
2022-09-25T14:37:33.873Z,97565.25
2022-09-25T14:40:15.247Z,97555.41
2022-09-25T14:43:24.951Z,97561.75
2022-09-25T14:46:20.241Z,97547.03
2022-09-25T14:48:59.681Z,97546.91
2022-09-25T14:51:40.444Z,97549.09
2022-09-25T14:54:18.039Z,97550.41
2022-09-25T14:56:51.524Z,97549.28
2022-09-25T14:59:31.262Z,97543.69
2022-09-25T15:02:04.705Z,97544.09
2022-09-25T15:04:38.440Z,97547.72
2022-09-25T15:07:20.883Z,97550.47
2022-09-25T15:09:55.468Z,97547.06
2022-09-25T15:12:31.491Z,97545.13
2022-09-25T15:15:08.607Z,97541.88
2022-09-25T15:17:49.596Z,97542.19
2022-09-25T15:20:28.511Z,97542.88
2022-09-25T15:23:03.520Z,97533.50
2022-09-25T15:25:38.147Z,97538.56
2022-09-25T15:28:10.138Z,97538.72
2022-09-25T15:30:42.310Z,97529.53
2022-09-25T15:33:25.744Z,97533.50
2022-09-25T15:36:04.809Z,97527.72
2022-09-25T15:38:37.762Z,97530.03
2022-09-25T15:41:12.276Z,97529.66
2022-09-25T15:43:43.330Z,97536.97
2022-09-25T15:46:38.314Z,97528.66
2022-09-25T15:49:09.690Z,97523.34
2022-09-25T15:51:52.459Z,97528.34
2022-09-25T15:54:35.374Z,97530.19
2022-09-25T15:57:11.376Z,97530.34
2022-09-25T15:59:58.389Z,97537.81
2022-09-25T16:02:47.569Z,97527.72
2022-09-25T16:05:26.341Z,97525.69
2022-09-25T16:08:32.143Z,97532.25
2022-09-25T16:11:21.826Z,97533.13
2022-09-25T16:13:54.852Z,97530.34
2022-09-25T16:16:30.094Z,97535.88
2022-09-25T16:19:02.148Z,97534.31
2022-09-25T16:21:35.827Z,97541.25
2022-09-25T16:24:20.173Z,97538.72
2022-09-25T16:26:58.099Z,97546.06
2022-09-25T16:29:31.810Z,97543.06
2022-09-25T16:32:07.420Z,97543.34
2022-09-25T16:34:40.530Z,97556.81
2022-09-25T16:37:23.916Z,97555.41
2022-09-25T16:40:24.861Z,97568.44
2022-09-25T16:42:58.671Z,97562.97
2022-09-25T16:45:33.481Z,97567.00
2022-09-25T16:48:30.593Z,97569.13
2022-09-25T16:51:02.938Z,97562.22
2022-09-25T16:53:33.309Z,97564.66
2022-09-25T16:56:06.118Z,97563.63
2022-09-25T16:58:37.597Z,97571.22
2022-09-25T17:01:07.875Z,97564.75
2022-09-25T17:03:49.947Z,97568.47
2022-09-25T17:06:20.605Z,97571.66
2022-09-25T17:08:51.502Z,97570.38
2022-09-25T17:11:25.324Z,97577.25
2022-09-25T17:13:56.460Z,97576.53
2022-09-25T17:16:26.690Z,97573.16
2022-09-25T17:19:01.361Z,97579.31
2022-09-25T17:21:34.248Z,97578.69
2022-09-25T17:24:04.858Z,97583.38
2022-09-25T17:26:38.044Z,97591.19
2022-09-25T17:29:08.132Z,97582.97
2022-09-25T17:31:38.381Z,97593.44
2022-09-25T17:34:18.608Z,97588.88
2022-09-25T17:36:49.434Z,97588.59
2022-09-25T17:39:19.751Z,97585.88
2022-09-25T17:41:52.820Z,97588.44
2022-09-25T17:44:25.046Z,97593.63
2022-09-25T17:46:56.157Z,97597.16
2022-09-25T17:49:26.778Z,97597.75
2022-09-25T17:51:58.020Z,97599.81
2022-09-25T17:54:31.737Z,97604.81
2022-09-25T17:57:05.132Z,97605.75
2022-09-25T17:59:35.100Z,97605.09
2022-09-25T18:02:05.226Z,97600.28
2022-09-25T18:04:35.250Z,97610.19
2022-09-25T18:07:06.547Z,97603.31
2022-09-25T18:09:36.518Z,97608.16
2022-09-25T18:12:09.211Z,97616.72
2022-09-25T18:14:39.280Z,97612.84
2022-09-25T18:17:09.364Z,97626.00
2022-09-25T18:19:52.063Z,97625.63
2022-09-25T18:22:25.410Z,97622.13
2022-09-25T18:24:57.718Z,97628.31
2022-09-25T18:27:35.488Z,97632.44
2022-09-25T18:30:05.496Z,97630.66
2022-09-25T18:32:35.798Z,97637.06
2022-09-25T18:35:05.829Z,97638.78
2022-09-25T18:37:35.781Z,97628.47
2022-09-25T18:40:06.869Z,97638.63
2022-09-25T18:42:39.951Z,97641.84
2022-09-25T18:45:13.243Z,97635.13
2022-09-25T18:47:45.726Z,97644.72
2022-09-25T18:50:20.610Z,97646.34
2022-09-25T18:52:51.351Z,97648.97
2022-09-25T18:55:21.363Z,97653.66
2022-09-25T18:57:53.917Z,97653.34
2022-09-25T19:00:23.925Z,97659.63
2022-09-25T19:02:54.385Z,97661.00
2022-09-25T19:05:25.961Z,97661.59
2022-09-25T19:07:56.299Z,97662.44
2022-09-25T19:10:26.951Z,97666.03
2022-09-25T19:12:59.578Z,97654.69
2022-09-25T19:15:29.798Z,97662.97
2022-09-25T19:17:59.941Z,97662.44
2022-09-25T19:20:30.054Z,97661.03
2022-09-25T19:23:02.315Z,97671.91
2022-09-25T19:25:32.799Z,97666.78
2022-09-25T19:28:05.647Z,97669.72
2022-09-25T19:30:35.611Z,97670.97
2022-09-25T19:33:05.596Z,97675.06
2022-09-25T19:35:35.544Z,97678.31
2022-09-25T19:38:10.355Z,97669.47
2022-09-25T19:40:42.614Z,97674.94
2022-09-25T19:43:15.207Z,97683.44
2022-09-25T19:45:53.774Z,97686.78
2022-09-25T19:48:24.621Z,97683.03
2022-09-25T19:50:54.587Z,97685.63
2022-09-25T19:53:24.563Z,97688.78
2022-09-25T19:55:55.854Z,97688.84
2022-09-25T19:58:29.066Z,97683.66
2022-09-25T20:01:00.629Z,97681.31
2022-09-25T20:03:30.632Z,97687.00
2022-09-25T20:06:04.351Z,97688.50
2022-09-25T20:08:34.398Z,97682.09
2022-09-25T20:11:17.211Z,97681.25
2022-09-25T20:13:51.952Z,97676.25
2022-09-25T20:16:26.955Z,97674.53
2022-09-25T20:19:00.306Z,97679.75
2022-09-25T20:21:33.160Z,97667.22
2022-09-25T20:24:06.339Z,97666.84
2022-09-25T20:26:37.042Z,97668.84
2022-09-25T20:29:13.173Z,97666.53
2022-09-25T20:31:46.017Z,97661.19
2022-09-25T20:34:19.838Z,97674.34
2022-09-25T20:36:49.984Z,97677.09
2022-09-25T20:39:21.515Z,97676.31
2022-09-25T20:41:52.418Z,97672.03
2022-09-25T20:44:25.153Z,97675.16
2022-09-25T20:46:55.125Z,97674.41
2022-09-25T20:49:25.069Z,97679.09
2022-09-25T20:51:55.045Z,97673.47
2022-09-25T20:54:28.544Z,97681.53
2022-09-25T20:56:58.604Z,97682.53
2022-09-25T20:59:31.171Z,97680.78
2022-09-25T21:02:02.414Z,97678.03
2022-09-25T21:04:32.530Z,97680.00
2022-09-25T21:07:03.672Z,97682.94
2022-09-25T21:09:33.686Z,97675.28
2022-09-25T21:12:05.735Z,97681.38
2022-09-25T21:14:38.360Z,97684.72
2022-09-25T21:17:08.395Z,97674.53
2022-09-25T21:19:39.080Z,97679.63
2022-09-25T21:22:09.113Z,97679.25
2022-09-25T21:24:39.905Z,97669.03
2022-09-25T21:27:09.897Z,97669.81
2022-09-25T21:29:42.414Z,97668.44
2022-09-25T21:32:12.377Z,97671.03
2022-09-25T21:34:42.321Z,97671.03
2022-09-25T21:37:12.223Z,97673.59
2022-09-25T21:39:42.164Z,97679.66
2022-09-25T21:42:12.273Z,97671.63
2022-09-25T21:44:46.131Z,97677.28
2022-09-25T21:47:17.953Z,97671.03
2022-09-25T21:49:48.365Z,97674.97
2022-09-25T21:52:18.316Z,97675.75
2022-09-25T21:54:48.325Z,97669.47
2022-09-25T21:57:18.275Z,97671.44
2022-09-25T21:59:51.040Z,97671.81
2022-09-25T22:02:20.999Z,97671.63
2022-09-25T22:04:50.944Z,97669.91
2022-09-25T22:07:23.225Z,97663.47
2022-09-25T22:09:53.256Z,97667.97
2022-09-25T22:12:23.183Z,97669.75
2022-09-25T22:14:56.770Z,97670.91
2022-09-25T22:17:26.758Z,97665.22
2022-09-25T22:19:56.731Z,97673.09
2022-09-25T22:22:26.767Z,97673.72
2022-09-25T22:24:56.752Z,97675.44
2022-09-25T22:27:26.704Z,97673.91
2022-09-25T22:29:59.372Z,97660.56
2022-09-25T22:32:29.418Z,97663.88
2022-09-25T22:34:59.402Z,97658.59
2022-09-25T22:37:30.773Z,97664.84
2022-09-25T22:40:00.713Z,97658.38
2022-09-25T22:42:30.726Z,97663.66
2022-09-25T22:45:03.329Z,97665.59
2022-09-25T22:47:33.343Z,97669.56
2022-09-25T22:50:03.317Z,97669.34
2022-09-25T22:52:33.567Z,97668.19
2022-09-25T22:55:03.589Z,97664.66
2022-09-25T22:57:38.999Z,97665.44
2022-09-25T23:00:14.511Z,97662.91
2022-09-25T23:02:45.042Z,97660.13
2022-09-25T23:05:15.492Z,97666.63
2022-09-25T23:07:45.539Z,97667.22
2022-09-25T23:10:15.520Z,97666.63
2022-09-25T23:12:45.516Z,97659.56
2022-09-25T23:15:18.278Z,97659.38
2022-09-25T23:17:48.284Z,97659.56
2022-09-25T23:20:18.628Z,97651.53
2022-09-25T23:22:48.540Z,97649.13
2022-09-25T23:25:18.910Z,97646.03
2022-09-25T23:27:48.872Z,97639.75
2022-09-25T23:30:21.580Z,97639.28
2022-09-25T23:32:51.519Z,97640.63
2022-09-25T23:35:21.472Z,97633.56
2022-09-25T23:37:51.377Z,97636.88
2022-09-25T23:40:21.533Z,97625.69
2022-09-25T23:42:51.948Z,97618.47
2022-09-25T23:45:25.125Z,97618.41
2022-09-25T23:47:55.136Z,97619.53
2022-09-25T23:50:25.158Z,97613.06
2022-09-25T23:52:55.117Z,97607.03
2022-09-25T23:55:25.061Z,97608.56
2022-09-25T23:57:54.983Z,97601.16
